Terminal Aerodrome Forecast
Issued by NWS

Current Version | Previous Version | Text Only | Print | Product List | Glossary Off
Versions: 1 2 3 4 5 6 7 8 9 10 11 12 13 14 15 16 17 18 19 20 21 22 23 24 25 26 27

000
FTUS41 KILN 231500 AAB
TAFLCK
TAF AMD
KLCK 231523Z 2315/2412 33013G22KT P6SM BKN090
     FM231800 32010KT P6SM BKN040
     FM232300 35010KT P6SM BKN100
     FM241100 01008KT P6SM SCT100=

USA.gov is the U.S. government's official web portal to all federal, state and local government web resources and services.